Impacts TAF Board INFO
FOR SITUATIONAL AWARENESS. NOT TO BE USED FOR FLIGHT PLANNING PURPOSES.
IDs:

KSAN - San Diego Intl Arpt, CA, US

Issued at 0520 UTC 20 Feb 2018
Updated at 0751 UTC 20 Feb 2018
Potential Impact None Slight Moderate High
Time0651Z 20/08Z 20/09Z 20/10Z 20/11Z 20/12Z 20/13Z 20/14Z 20/15Z 20/16Z 20/17Z 20/18Z 20/19Z 20/20Z>>
Type OBS PRVL PRVL PRVL PRVL PRVL PRVL PRVL PRVL PRVL PRVL PRVL PRVL PRVL
VIS 10 >6 >6 >6 >6 >6 >6 >6 >6 >6 >6 >6 >6 >6
CIG -- -- -- -- -- -- -- -- -- -- -- -- -- --
Cover FEW FEW FEW FEW FEW FEW FEW FEW FEW FEW FEW FEW FEW FEW
FltCat VFR VFR VFR VFR VFR VFR VFR VFR VFR VFR VFR VFR VFR VFR
WX -- -- -- -- -- -- -- -- -- -- -- -- -- --
WDir 10 VRB VRB VRB VRB VRB VRB VRB VRB VRB VRB VRB VRB VRB
WSpd 4 4 4 4 4 4 4 4 4 4 4 4 4 4
WGst -- -- -- -- -- -- -- -- -- -- -- -- -- --

Raw TAF
KSAN 200520Z 2006/2112 33008KT P6SM VCSH FEW050
  FM200700 VRB04KT P6SM FEW050
  FM202100 28008KT P6SM SKC
  FM210100 VRB04KT P6SM SKC


Raw METAR
KSAN 200651Z 01004KT 10SM FEW045 FEW080 11/M02 A3004 RMK AO2 SLP173 T01111017
KSAN 200551Z 33003KT 10SM FEW045 FEW060 BKN080 11/02 A3002 RMK AO2 RAB08E25 SLP164 VCSH P0000 60000 T01110017 10144 20111 53011
KSAN 200451Z 33010KT 10SM FEW050 FEW060 SCT080 13/01 A3000 RMK AO2 SLP158 T01280011

METAR Board
Radar Display
Forecast Discussion

FOR SITUATIONAL AWARENESS. NOT TO BE USED FOR FLIGHT PLANNING PURPOSES.